sensor_id;sensor_type;location;lat;lon;timestamp;P1;durP1;ratioP1;P2;durP2;ratioP2
15061;SDS011;7630;50.306;8.566;2023-02-12T00:00:10;82.60;;;49.00;;
15061;SDS011;7630;50.306;8.566;2023-02-12T00:04:12;81.80;;;53.30;;
15061;SDS011;7630;50.306;8.566;2023-02-12T00:08:13;72.73;;;47.60;;
15061;SDS011;7630;50.306;8.566;2023-02-12T00:12:15;87.33;;;48.57;;
15061;SDS011;7630;50.306;8.566;2023-02-12T00:16:18;95.30;;;53.20;;
15061;SDS011;7630;50.306;8.566;2023-02-12T00:20:21;81.43;;;54.17;;
15061;SDS011;7630;50.306;8.566;2023-02-12T00:24:22;70.70;;;47.77;;
15061;SDS011;7630;50.306;8.566;2023-02-12T00:28:23;82.33;;;48.53;;
15061;SDS011;7630;50.306;8.566;2023-02-12T00:32:25;87.27;;;51.67;;
15061;SDS011;7630;50.306;8.566;2023-02-12T00:36:27;91.03;;;53.33;;
15061;SDS011;7630;50.306;8.566;2023-02-12T00:40:30;98.93;;;55.23;;
15061;SDS011;7630;50.306;8.566;2023-02-12T00:44:31;87.63;;;54.33;;
15061;SDS011;7630;50.306;8.566;2023-02-12T00:48:33;105.63;;;55.23;;
15061;SDS011;7630;50.306;8.566;2023-02-12T00:52:35;110.43;;;56.67;;
15061;SDS011;7630;50.306;8.566;2023-02-12T00:56:36;98.23;;;57.00;;
15061;SDS011;7630;50.306;8.566;2023-02-12T01:00:37;97.27;;;55.27;;
15061;SDS011;7630;50.306;8.566;2023-02-12T01:04:38;100.20;;;53.90;;
15061;SDS011;7630;50.306;8.566;2023-02-12T01:08:39;95.53;;;53.03;;
15061;SDS011;7630;50.306;8.566;2023-02-12T01:12:41;95.13;;;53.23;;
15061;SDS011;7630;50.306;8.566;2023-02-12T01:16:42;101.87;;;54.17;;
15061;SDS011;7630;50.306;8.566;2023-02-12T01:20:43;99.63;;;54.93;;
15061;SDS011;7630;50.306;8.566;2023-02-12T01:24:44;107.20;;;56.13;;
15061;SDS011;7630;50.306;8.566;2023-02-12T01:28:48;109.37;;;56.27;;
15061;SDS011;7630;50.306;8.566;2023-02-12T01:32:50;116.20;;;60.47;;
15061;SDS011;7630;50.306;8.566;2023-02-12T01:36:51;123.03;;;59.83;;
15061;SDS011;7630;50.306;8.566;2023-02-12T01:40:52;116.57;;;57.27;;
15061;SDS011;7630;50.306;8.566;2023-02-12T01:49:19;106.00;;;58.23;;
15061;SDS011;7630;50.306;8.566;2023-02-12T01:53:21;116.50;;;60.23;;
15061;SDS011;7630;50.306;8.566;2023-02-12T01:57:25;109.63;;;55.93;;
15061;SDS011;7630;50.306;8.566;2023-02-12T02:01:30;107.17;;;55.03;;
15061;SDS011;7630;50.306;8.566;2023-02-12T02:05:47;117.47;;;55.67;;
15061;SDS011;7630;50.306;8.566;2023-02-12T02:09:54;118.70;;;57.60;;
15061;SDS011;7630;50.306;8.566;2023-02-12T02:13:56;107.73;;;56.93;;
15061;SDS011;7630;50.306;8.566;2023-02-12T02:18:22;122.17;;;59.13;;
15061;SDS011;7630;50.306;8.566;2023-02-12T02:22:37;107.10;;;55.40;;
15061;SDS011;7630;50.306;8.566;2023-02-12T02:39:22;106.37;;;57.03;;
15061;SDS011;7630;50.306;8.566;2023-02-12T02:43:28;108.43;;;57.07;;
15061;SDS011;7630;50.306;8.566;2023-02-12T02:47:48;101.03;;;57.73;;
15061;SDS011;7630;50.306;8.566;2023-02-12T02:51:56;97.93;;;55.10;;
15061;SDS011;7630;50.306;8.566;2023-02-12T02:56:00;92.80;;;53.03;;
15061;SDS011;7630;50.306;8.566;2023-02-12T03:00:08;97.33;;;52.43;;
15061;SDS011;7630;50.306;8.566;2023-02-12T03:04:13;90.93;;;53.27;;
15061;SDS011;7630;50.306;8.566;2023-02-12T03:08:22;97.43;;;52.07;;
15061;SDS011;7630;50.306;8.566;2023-02-12T03:12:27;104.63;;;53.00;;
15061;SDS011;7630;50.306;8.566;2023-02-12T03:16:30;100.97;;;54.67;;
15061;SDS011;7630;50.306;8.566;2023-02-12T03:20:35;98.77;;;55.57;;
15061;SDS011;7630;50.306;8.566;2023-02-12T03:24:40;102.43;;;55.43;;
15061;SDS011;7630;50.306;8.566;2023-02-12T03:28:46;101.23;;;53.17;;
15061;SDS011;7630;50.306;8.566;2023-02-12T03:32:56;109.37;;;57.63;;
15061;SDS011;7630;50.306;8.566;2023-02-12T03:37:03;109.50;;;59.20;;
15061;SDS011;7630;50.306;8.566;2023-02-12T03:49:48;93.60;;;52.40;;
15061;SDS011;7630;50.306;8.566;2023-02-12T03:53:53;101.93;;;56.50;;
15061;SDS011;7630;50.306;8.566;2023-02-12T03:57:57;93.43;;;52.80;;
15061;SDS011;7630;50.306;8.566;2023-02-12T04:02:01;94.83;;;52.37;;
15061;SDS011;7630;50.306;8.566;2023-02-12T04:06:02;86.23;;;51.23;;
15061;SDS011;7630;50.306;8.566;2023-02-12T04:10:04;83.13;;;48.73;;
15061;SDS011;7630;50.306;8.566;2023-02-12T04:18:42;89.13;;;47.80;;
15061;SDS011;7630;50.306;8.566;2023-02-12T04:27:25;80.70;;;46.97;;
15061;SDS011;7630;50.306;8.566;2023-02-12T04:31:48;76.40;;;44.80;;
15061;SDS011;7630;50.306;8.566;2023-02-12T04:35:49;72.90;;;43.80;;
15061;SDS011;7630;50.306;8.566;2023-02-12T04:39:52;81.23;;;50.03;;
15061;SDS011;7630;50.306;8.566;2023-02-12T04:43:54;74.23;;;45.93;;
15061;SDS011;7630;50.306;8.566;2023-02-12T04:47:55;65.93;;;42.10;;
15061;SDS011;7630;50.306;8.566;2023-02-12T04:51:57;73.53;;;44.37;;
15061;SDS011;7630;50.306;8.566;2023-02-12T04:55:58;82.27;;;46.77;;
15061;SDS011;7630;50.306;8.566;2023-02-12T04:59:59;71.63;;;44.13;;
15061;SDS011;7630;50.306;8.566;2023-02-12T05:04:00;67.20;;;43.70;;
15061;SDS011;7630;50.306;8.566;2023-02-12T05:08:02;67.73;;;41.50;;
15061;SDS011;7630;50.306;8.566;2023-02-12T05:12:03;78.10;;;45.70;;
15061;SDS011;7630;50.306;8.566;2023-02-12T05:16:05;81.80;;;47.37;;
15061;SDS011;7630;50.306;8.566;2023-02-12T05:20:07;80.47;;;51.07;;
15061;SDS011;7630;50.306;8.566;2023-02-12T05:24:09;89.57;;;49.20;;
15061;SDS011;7630;50.306;8.566;2023-02-12T05:28:10;81.30;;;51.43;;
15061;SDS011;7630;50.306;8.566;2023-02-12T05:32:11;86.90;;;48.70;;
15061;SDS011;7630;50.306;8.566;2023-02-12T05:36:14;91.00;;;48.97;;
15061;SDS011;7630;50.306;8.566;2023-02-12T05:40:16;96.40;;;54.47;;
15061;SDS011;7630;50.306;8.566;2023-02-12T05:44:17;81.13;;;48.47;;
15061;SDS011;7630;50.306;8.566;2023-02-12T05:48:19;86.87;;;52.97;;
15061;SDS011;7630;50.306;8.566;2023-02-12T05:52:20;91.10;;;50.70;;
15061;SDS011;7630;50.306;8.566;2023-02-12T05:56:22;95.60;;;52.07;;
15061;SDS011;7630;50.306;8.566;2023-02-12T06:00:24;89.27;;;52.00;;
15061;SDS011;7630;50.306;8.566;2023-02-12T06:04:26;85.60;;;50.67;;
15061;SDS011;7630;50.306;8.566;2023-02-12T06:08:28;99.70;;;50.27;;
15061;SDS011;7630;50.306;8.566;2023-02-12T06:12:30;99.83;;;53.03;;
15061;SDS011;7630;50.306;8.566;2023-02-12T06:16:31;105.67;;;57.27;;
15061;SDS011;7630;50.306;8.566;2023-02-12T06:20:33;98.40;;;51.67;;
15061;SDS011;7630;50.306;8.566;2023-02-12T06:24:34;107.43;;;56.00;;
15061;SDS011;7630;50.306;8.566;2023-02-12T06:28:36;109.63;;;54.83;;
15061;SDS011;7630;50.306;8.566;2023-02-12T06:32:38;97.97;;;52.40;;
15061;SDS011;7630;50.306;8.566;2023-02-12T06:36:40;97.70;;;49.43;;
15061;SDS011;7630;50.306;8.566;2023-02-12T06:40:44;101.80;;;51.27;;
15061;SDS011;7630;50.306;8.566;2023-02-12T06:44:45;113.47;;;51.33;;
15061;SDS011;7630;50.306;8.566;2023-02-12T06:48:47;105.20;;;50.90;;
15061;SDS011;7630;50.306;8.566;2023-02-12T06:52:48;108.43;;;52.80;;
15061;SDS011;7630;50.306;8.566;2023-02-12T06:56:49;104.00;;;53.47;;
15061;SDS011;7630;50.306;8.566;2023-02-12T07:00:52;98.90;;;50.73;;
15061;SDS011;7630;50.306;8.566;2023-02-12T07:04:53;103.83;;;51.73;;
15061;SDS011;7630;50.306;8.566;2023-02-12T07:08:54;105.70;;;59.60;;
15061;SDS011;7630;50.306;8.566;2023-02-12T07:12:56;106.23;;;52.57;;
15061;SDS011;7630;50.306;8.566;2023-02-12T07:16:57;103.30;;;51.53;;
15061;SDS011;7630;50.306;8.566;2023-02-12T07:20:58;95.80;;;53.20;;
15061;SDS011;7630;50.306;8.566;2023-02-12T07:24:59;104.13;;;53.57;;
15061;SDS011;7630;50.306;8.566;2023-02-12T07:29:00;104.10;;;50.23;;
15061;SDS011;7630;50.306;8.566;2023-02-12T07:33:01;117.53;;;53.63;;
15061;SDS011;7630;50.306;8.566;2023-02-12T07:37:03;110.27;;;52.70;;
15061;SDS011;7630;50.306;8.566;2023-02-12T07:41:09;105.47;;;54.30;;
15061;SDS011;7630;50.306;8.566;2023-02-12T07:45:15;107.97;;;51.27;;
15061;SDS011;7630;50.306;8.566;2023-02-12T07:49:20;103.67;;;54.77;;
15061;SDS011;7630;50.306;8.566;2023-02-12T07:53:22;98.97;;;50.40;;
15061;SDS011;7630;50.306;8.566;2023-02-12T07:57:23;97.50;;;49.50;;
15061;SDS011;7630;50.306;8.566;2023-02-12T08:01:31;97.63;;;48.80;;
15061;SDS011;7630;50.306;8.566;2023-02-12T08:05:33;89.33;;;48.33;;
15061;SDS011;7630;50.306;8.566;2023-02-12T08:09:35;90.77;;;48.03;;
15061;SDS011;7630;50.306;8.566;2023-02-12T08:13:36;82.57;;;47.03;;
15061;SDS011;7630;50.306;8.566;2023-02-12T08:17:38;72.10;;;42.43;;
15061;SDS011;7630;50.306;8.566;2023-02-12T08:21:39;75.87;;;43.93;;
15061;SDS011;7630;50.306;8.566;2023-02-12T08:25:40;72.00;;;42.43;;
15061;SDS011;7630;50.306;8.566;2023-02-12T08:29:43;71.13;;;43.17;;
15061;SDS011;7630;50.306;8.566;2023-02-12T08:33:45;75.23;;;46.07;;
15061;SDS011;7630;50.306;8.566;2023-02-12T08:37:46;81.53;;;44.83;;
15061;SDS011;7630;50.306;8.566;2023-02-12T08:41:47;76.33;;;43.83;;
15061;SDS011;7630;50.306;8.566;2023-02-12T08:45:49;73.97;;;43.73;;
15061;SDS011;7630;50.306;8.566;2023-02-12T08:49:50;69.23;;;42.57;;
15061;SDS011;7630;50.306;8.566;2023-02-12T08:53:52;70.90;;;42.17;;
15061;SDS011;7630;50.306;8.566;2023-02-12T08:57:55;63.53;;;41.73;;
15061;SDS011;7630;50.306;8.566;2023-02-12T09:01:58;64.17;;;41.53;;
15061;SDS011;7630;50.306;8.566;2023-02-12T09:06:03;62.53;;;40.17;;
15061;SDS011;7630;50.306;8.566;2023-02-12T09:10:06;55.23;;;36.87;;
15061;SDS011;7630;50.306;8.566;2023-02-12T09:14:09;53.07;;;35.90;;
15061;SDS011;7630;50.306;8.566;2023-02-12T09:18:12;52.40;;;36.90;;
15061;SDS011;7630;50.306;8.566;2023-02-12T09:22:14;51.07;;;36.00;;
15061;SDS011;7630;50.306;8.566;2023-02-12T09:26:17;46.60;;;33.93;;
15061;SDS011;7630;50.306;8.566;2023-02-12T09:30:22;40.53;;;33.13;;
15061;SDS011;7630;50.306;8.566;2023-02-12T09:34:23;37.00;;;29.00;;
15061;SDS011;7630;50.306;8.566;2023-02-12T09:38:24;45.60;;;32.20;;
15061;SDS011;7630;50.306;8.566;2023-02-12T09:46:44;43.90;;;33.50;;
15061;SDS011;7630;50.306;8.566;2023-02-12T09:51:05;51.60;;;34.37;;
15061;SDS011;7630;50.306;8.566;2023-02-12T09:55:15;42.13;;;32.70;;
15061;SDS011;7630;50.306;8.566;2023-02-12T09:59:28;34.77;;;28.50;;
15061;SDS011;7630;50.306;8.566;2023-02-12T10:03:29;35.83;;;29.97;;
15061;SDS011;7630;50.306;8.566;2023-02-12T10:11:59;32.13;;;28.37;;
15061;SDS011;7630;50.306;8.566;2023-02-12T10:16:35;32.60;;;25.17;;
15061;SDS011;7630;50.306;8.566;2023-02-12T10:25:55;24.37;;;20.53;;
15061;SDS011;7630;50.306;8.566;2023-02-12T10:29:23;26.90;;;22.87;;
15061;SDS011;7630;50.306;8.566;2023-02-12T10:33:31;29.57;;;23.77;;
15061;SDS011;7630;50.306;8.566;2023-02-12T10:37:39;33.43;;;27.40;;
15061;SDS011;7630;50.306;8.566;2023-02-12T10:46:16;36.03;;;25.60;;
15061;SDS011;7630;50.306;8.566;2023-02-12T10:50:24;32.27;;;27.30;;
15061;SDS011;7630;50.306;8.566;2023-02-12T10:54:44;36.13;;;28.80;;
15061;SDS011;7630;50.306;8.566;2023-02-12T11:03:01;36.17;;;27.30;;
15061;SDS011;7630;50.306;8.566;2023-02-12T11:07:07;36.37;;;27.03;;
15061;SDS011;7630;50.306;8.566;2023-02-12T11:11:10;29.80;;;24.10;;
15061;SDS011;7630;50.306;8.566;2023-02-12T11:15:45;25.40;;;21.40;;
15061;SDS011;7630;50.306;8.566;2023-02-12T11:19:45;27.77;;;22.80;;
15061;SDS011;7630;50.306;8.566;2023-02-12T11:23:50;21.97;;;19.00;;
15061;SDS011;7630;50.306;8.566;2023-02-12T11:27:58;18.47;;;16.47;;
15061;SDS011;7630;50.306;8.566;2023-02-12T11:32:15;23.57;;;19.80;;
15061;SDS011;7630;50.306;8.566;2023-02-12T11:36:28;21.50;;;18.83;;
15061;SDS011;7630;50.306;8.566;2023-02-12T11:40:26;27.30;;;22.60;;
15061;SDS011;7630;50.306;8.566;2023-02-12T11:44:31;32.90;;;24.07;;
15061;SDS011;7630;50.306;8.566;2023-02-12T11:48:35;28.17;;;23.10;;
15061;SDS011;7630;50.306;8.566;2023-02-12T11:52:39;26.83;;;22.77;;
15061;SDS011;7630;50.306;8.566;2023-02-12T11:56:44;25.13;;;21.10;;
15061;SDS011;7630;50.306;8.566;2023-02-12T12:00:49;22.67;;;19.17;;
15061;SDS011;7630;50.306;8.566;2023-02-12T12:05:00;25.73;;;21.30;;
15061;SDS011;7630;50.306;8.566;2023-02-12T12:13:31;23.57;;;19.40;;
15061;SDS011;7630;50.306;8.566;2023-02-12T12:17:53;22.27;;;19.60;;
15061;SDS011;7630;50.306;8.566;2023-02-12T12:22:23;25.07;;;21.23;;
15061;SDS011;7630;50.306;8.566;2023-02-12T12:26:30;24.40;;;19.63;;
15061;SDS011;7630;50.306;8.566;2023-02-12T12:34:55;22.17;;;19.20;;
15061;SDS011;7630;50.306;8.566;2023-02-12T12:39:05;20.17;;;17.50;;
15061;SDS011;7630;50.306;8.566;2023-02-12T12:56:13;17.47;;;15.77;;
15061;SDS011;7630;50.306;8.566;2023-02-12T13:00:26;26.43;;;17.53;;
15061;SDS011;7630;50.306;8.566;2023-02-12T13:13:16;12.27;;;11.07;;
15061;SDS011;7630;50.306;8.566;2023-02-12T13:17:38;12.07;;;10.63;;
15061;SDS011;7630;50.306;8.566;2023-02-12T13:26:14;10.47;;;9.37;;
15061;SDS011;7630;50.306;8.566;2023-02-12T13:34:22;21.30;;;18.83;;
15061;SDS011;7630;50.306;8.566;2023-02-12T13:38:30;26.50;;;22.17;;
15061;SDS011;7630;50.306;8.566;2023-02-12T13:55:16;36.27;;;29.67;;
15061;SDS011;7630;50.306;8.566;2023-02-12T14:03:35;34.77;;;26.87;;
15061;SDS011;7630;50.306;8.566;2023-02-12T14:07:42;36.10;;;30.13;;
15061;SDS011;7630;50.306;8.566;2023-02-12T14:11:49;38.87;;;27.23;;
15061;SDS011;7630;50.306;8.566;2023-02-12T14:15:53;37.90;;;28.37;;
15061;SDS011;7630;50.306;8.566;2023-02-12T14:19:58;34.00;;;27.13;;
15061;SDS011;7630;50.306;8.566;2023-02-12T14:28:46;34.87;;;27.87;;
15061;SDS011;7630;50.306;8.566;2023-02-12T14:32:56;33.00;;;25.20;;
15061;SDS011;7630;50.306;8.566;2023-02-12T14:37:15;26.07;;;22.87;;
15061;SDS011;7630;50.306;8.566;2023-02-12T14:41:25;32.30;;;24.27;;
15061;SDS011;7630;50.306;8.566;2023-02-12T14:45:37;22.17;;;19.30;;
15061;SDS011;7630;50.306;8.566;2023-02-12T14:49:43;23.20;;;20.67;;
15061;SDS011;7630;50.306;8.566;2023-02-12T14:53:49;21.37;;;18.67;;
15061;SDS011;7630;50.306;8.566;2023-02-12T14:57:59;22.53;;;18.43;;
15061;SDS011;7630;50.306;8.566;2023-02-12T15:02:02;22.10;;;19.90;;
15061;SDS011;7630;50.306;8.566;2023-02-12T15:06:06;21.17;;;17.93;;
15061;SDS011;7630;50.306;8.566;2023-02-12T15:14:33;19.50;;;17.10;;
15061;SDS011;7630;50.306;8.566;2023-02-12T15:22:50;18.57;;;16.03;;
15061;SDS011;7630;50.306;8.566;2023-02-12T15:26:52;15.70;;;14.10;;
15061;SDS011;7630;50.306;8.566;2023-02-12T15:30:54;16.47;;;14.77;;
15061;SDS011;7630;50.306;8.566;2023-02-12T15:34:56;14.77;;;12.90;;
15061;SDS011;7630;50.306;8.566;2023-02-12T15:39:02;12.10;;;10.90;;
15061;SDS011;7630;50.306;8.566;2023-02-12T15:43:06;10.60;;;9.60;;
15061;SDS011;7630;50.306;8.566;2023-02-12T15:47:11;12.30;;;11.17;;
15061;SDS011;7630;50.306;8.566;2023-02-12T15:51:33;13.93;;;12.63;;
15061;SDS011;7630;50.306;8.566;2023-02-12T15:55:38;13.57;;;12.13;;
15061;SDS011;7630;50.306;8.566;2023-02-12T15:59:42;14.20;;;11.90;;
15061;SDS011;7630;50.306;8.566;2023-02-12T16:03:43;19.43;;;16.37;;
15061;SDS011;7630;50.306;8.566;2023-02-12T16:07:51;16.03;;;12.93;;
15061;SDS011;7630;50.306;8.566;2023-02-12T16:11:52;16.03;;;14.33;;
15061;SDS011;7630;50.306;8.566;2023-02-12T16:24:24;29.70;;;18.80;;
15061;SDS011;7630;50.306;8.566;2023-02-12T16:28:29;24.27;;;17.50;;
15061;SDS011;7630;50.306;8.566;2023-02-12T16:36:44;31.80;;;22.27;;
15061;SDS011;7630;50.306;8.566;2023-02-12T16:40:44;28.37;;;18.90;;
15061;SDS011;7630;50.306;8.566;2023-02-12T16:44:49;32.27;;;22.20;;
15061;SDS011;7630;50.306;8.566;2023-02-12T16:48:51;33.50;;;27.02;;
15061;SDS011;7630;50.306;8.566;2023-02-12T16:53:00;43.07;;;32.60;;
15061;SDS011;7630;50.306;8.566;2023-02-12T16:57:03;57.63;;;44.00;;
15061;SDS011;7630;50.306;8.566;2023-02-12T17:01:05;38.60;;;29.47;;
15061;SDS011;7630;50.306;8.566;2023-02-12T17:05:07;36.57;;;25.77;;
15061;SDS011;7630;50.306;8.566;2023-02-12T17:09:10;32.93;;;24.70;;
15061;SDS011;7630;50.306;8.566;2023-02-12T17:13:11;36.93;;;25.50;;
15061;SDS011;7630;50.306;8.566;2023-02-12T17:17:13;32.90;;;23.10;;
15061;SDS011;7630;50.306;8.566;2023-02-12T17:25:24;32.17;;;23.67;;
15061;SDS011;7630;50.306;8.566;2023-02-12T17:29:26;33.83;;;25.43;;
15061;SDS011;7630;50.306;8.566;2023-02-12T17:33:28;30.00;;;23.53;;
15061;SDS011;7630;50.306;8.566;2023-02-12T17:37:29;30.60;;;21.47;;
15061;SDS011;7630;50.306;8.566;2023-02-12T17:41:30;28.50;;;20.50;;
15061;SDS011;7630;50.306;8.566;2023-02-12T17:45:32;22.50;;;18.87;;
15061;SDS011;7630;50.306;8.566;2023-02-12T17:49:34;26.43;;;19.37;;
15061;SDS011;7630;50.306;8.566;2023-02-12T17:53:35;28.53;;;20.03;;
15061;SDS011;7630;50.306;8.566;2023-02-12T17:57:38;25.63;;;17.53;;
15061;SDS011;7630;50.306;8.566;2023-02-12T18:01:39;23.63;;;17.57;;
15061;SDS011;7630;50.306;8.566;2023-02-12T18:05:40;20.17;;;16.20;;
15061;SDS011;7630;50.306;8.566;2023-02-12T18:09:42;22.13;;;16.83;;
15061;SDS011;7630;50.306;8.566;2023-02-12T18:13:44;21.13;;;17.20;;
15061;SDS011;7630;50.306;8.566;2023-02-12T18:17:45;24.07;;;17.43;;
15061;SDS011;7630;50.306;8.566;2023-02-12T18:21:47;20.03;;;15.93;;
15061;SDS011;7630;50.306;8.566;2023-02-12T18:25:48;17.50;;;14.87;;
15061;SDS011;7630;50.306;8.566;2023-02-12T18:29:50;19.00;;;15.60;;
15061;SDS011;7630;50.306;8.566;2023-02-12T18:33:52;18.47;;;14.97;;
15061;SDS011;7630;50.306;8.566;2023-02-12T18:37:53;16.07;;;14.37;;
15061;SDS011;7630;50.306;8.566;2023-02-12T18:41:54;18.03;;;15.00;;
15061;SDS011;7630;50.306;8.566;2023-02-12T18:45:56;17.60;;;14.83;;
15061;SDS011;7630;50.306;8.566;2023-02-12T18:49:57;20.40;;;16.70;;
15061;SDS011;7630;50.306;8.566;2023-02-12T18:53:59;19.90;;;17.33;;
15061;SDS011;7630;50.306;8.566;2023-02-12T18:58:02;21.10;;;17.10;;
15061;SDS011;7630;50.306;8.566;2023-02-12T19:02:04;20.57;;;17.83;;
15061;SDS011;7630;50.306;8.566;2023-02-12T19:06:06;17.80;;;15.90;;
15061;SDS011;7630;50.306;8.566;2023-02-12T19:10:07;19.23;;;15.97;;
15061;SDS011;7630;50.306;8.566;2023-02-12T19:14:09;18.37;;;16.17;;
15061;SDS011;7630;50.306;8.566;2023-02-12T19:18:10;19.90;;;18.00;;
15061;SDS011;7630;50.306;8.566;2023-02-12T19:22:11;18.53;;;16.50;;
15061;SDS011;7630;50.306;8.566;2023-02-12T19:26:13;17.77;;;15.90;;
15061;SDS011;7630;50.306;8.566;2023-02-12T19:30:15;18.13;;;16.20;;
15061;SDS011;7630;50.306;8.566;2023-02-12T19:34:18;20.17;;;18.03;;
15061;SDS011;7630;50.306;8.566;2023-02-12T19:38:20;20.97;;;17.53;;
15061;SDS011;7630;50.306;8.566;2023-02-12T19:42:22;21.90;;;19.70;;
15061;SDS011;7630;50.306;8.566;2023-02-12T19:46:25;26.73;;;22.50;;
15061;SDS011;7630;50.306;8.566;2023-02-12T19:50:29;26.17;;;23.53;;
15061;SDS011;7630;50.306;8.566;2023-02-12T19:54:30;21.97;;;18.70;;
15061;SDS011;7630;50.306;8.566;2023-02-12T19:58:32;22.60;;;20.33;;
15061;SDS011;7630;50.306;8.566;2023-02-12T20:02:33;23.07;;;19.53;;
15061;SDS011;7630;50.306;8.566;2023-02-12T20:06:35;25.10;;;20.27;;
15061;SDS011;7630;50.306;8.566;2023-02-12T20:10:38;23.37;;;20.87;;
15061;SDS011;7630;50.306;8.566;2023-02-12T20:14:40;25.13;;;19.73;;
15061;SDS011;7630;50.306;8.566;2023-02-12T20:18:42;26.03;;;21.70;;
15061;SDS011;7630;50.306;8.566;2023-02-12T20:22:44;26.23;;;20.43;;
15061;SDS011;7630;50.306;8.566;2023-02-12T20:26:46;26.10;;;20.87;;
15061;SDS011;7630;50.306;8.566;2023-02-12T20:30:47;25.57;;;19.60;;
15061;SDS011;7630;50.306;8.566;2023-02-12T20:34:49;30.30;;;22.03;;
15061;SDS011;7630;50.306;8.566;2023-02-12T20:38:52;25.97;;;21.50;;
15061;SDS011;7630;50.306;8.566;2023-02-12T20:42:55;24.40;;;21.47;;
15061;SDS011;7630;50.306;8.566;2023-02-12T20:46:57;34.20;;;23.43;;
15061;SDS011;7630;50.306;8.566;2023-02-12T20:51:02;28.73;;;23.00;;
15061;SDS011;7630;50.306;8.566;2023-02-12T20:55:05;32.23;;;25.50;;
15061;SDS011;7630;50.306;8.566;2023-02-12T20:59:09;34.60;;;25.10;;
15061;SDS011;7630;50.306;8.566;2023-02-12T21:03:11;32.17;;;24.73;;
15061;SDS011;7630;50.306;8.566;2023-02-12T21:07:12;30.63;;;25.07;;
15061;SDS011;7630;50.306;8.566;2023-02-12T21:11:18;32.97;;;25.40;;
15061;SDS011;7630;50.306;8.566;2023-02-12T21:15:17;34.53;;;24.70;;
15061;SDS011;7630;50.306;8.566;2023-02-12T21:19:19;33.23;;;27.17;;
15061;SDS011;7630;50.306;8.566;2023-02-12T21:23:21;34.80;;;26.60;;
15061;SDS011;7630;50.306;8.566;2023-02-12T21:27:22;36.30;;;27.50;;
15061;SDS011;7630;50.306;8.566;2023-02-12T21:31:27;36.07;;;26.27;;
15061;SDS011;7630;50.306;8.566;2023-02-12T21:35:30;39.40;;;27.60;;
15061;SDS011;7630;50.306;8.566;2023-02-12T21:39:34;33.90;;;26.50;;
15061;SDS011;7630;50.306;8.566;2023-02-12T21:43:35;35.43;;;28.13;;
15061;SDS011;7630;50.306;8.566;2023-02-12T21:47:37;37.17;;;29.37;;
15061;SDS011;7630;50.306;8.566;2023-02-12T21:51:39;37.40;;;29.90;;
15061;SDS011;7630;50.306;8.566;2023-02-12T21:55:42;33.83;;;26.73;;
15061;SDS011;7630;50.306;8.566;2023-02-12T21:59:43;34.43;;;26.90;;
15061;SDS011;7630;50.306;8.566;2023-02-12T22:03:44;29.37;;;25.27;;
15061;SDS011;7630;50.306;8.566;2023-02-12T22:07:48;33.73;;;27.13;;
15061;SDS011;7630;50.306;8.566;2023-02-12T22:11:50;34.40;;;28.57;;
15061;SDS011;7630;50.306;8.566;2023-02-12T22:15:52;36.20;;;27.60;;
15061;SDS011;7630;50.306;8.566;2023-02-12T22:19:53;30.73;;;26.30;;
15061;SDS011;7630;50.306;8.566;2023-02-12T22:23:54;36.50;;;28.63;;
15061;SDS011;7630;50.306;8.566;2023-02-12T22:27:56;30.10;;;24.80;;
15061;SDS011;7630;50.306;8.566;2023-02-12T22:31:57;32.60;;;26.73;;
15061;SDS011;7630;50.306;8.566;2023-02-12T22:36:05;35.97;;;28.13;;
15061;SDS011;7630;50.306;8.566;2023-02-12T22:40:08;44.87;;;34.67;;
15061;SDS011;7630;50.306;8.566;2023-02-12T22:44:10;45.20;;;36.63;;
15061;SDS011;7630;50.306;8.566;2023-02-12T22:48:13;30.97;;;27.67;;
15061;SDS011;7630;50.306;8.566;2023-02-12T22:52:14;31.77;;;25.47;;
15061;SDS011;7630;50.306;8.566;2023-02-12T22:56:15;30.27;;;26.10;;
15061;SDS011;7630;50.306;8.566;2023-02-12T23:00:17;27.27;;;23.07;;
15061;SDS011;7630;50.306;8.566;2023-02-12T23:04:19;28.73;;;24.90;;
15061;SDS011;7630;50.306;8.566;2023-02-12T23:08:20;25.63;;;22.87;;
15061;SDS011;7630;50.306;8.566;2023-02-12T23:12:21;26.73;;;21.93;;
15061;SDS011;7630;50.306;8.566;2023-02-12T23:16:22;29.20;;;22.77;;
15061;SDS011;7630;50.306;8.566;2023-02-12T23:20:24;30.77;;;26.27;;
15061;SDS011;7630;50.306;8.566;2023-02-12T23:24:25;26.60;;;23.90;;
15061;SDS011;7630;50.306;8.566;2023-02-12T23:28:26;26.10;;;22.27;;
15061;SDS011;7630;50.306;8.566;2023-02-12T23:32:28;26.90;;;22.03;;
15061;SDS011;7630;50.306;8.566;2023-02-12T23:36:29;26.93;;;23.30;;
15061;SDS011;7630;50.306;8.566;2023-02-12T23:40:31;29.60;;;23.37;;
15061;SDS011;7630;50.306;8.566;2023-02-12T23:44:33;29.23;;;26.23;;
15061;SDS011;7630;50.306;8.566;2023-02-12T23:48:34;28.27;;;24.37;;
15061;SDS011;7630;50.306;8.566;2023-02-12T23:52:35;27.20;;;24.23;;
15061;SDS011;7630;50.306;8.566;2023-02-12T23:56:37;25.17;;;22.57;;
